Time;durP1;ratioP1;P1;durP2;ratioP2;P2;SDS_P1;SDS_P2;PMS_P1;PMS_P2;Temp;Humidity;BMP_temperature;BMP_pressure;BME280_temperature;BME280_humidity;BME280_pressure;Samples;Min_cycle;Max_cycle;Signal;HPM_P1;HPM_P2
2022/10/25 00:01:40;;;;;;;9.85;1.83;;;;;;;17.62;79.39;101011.56;5071620;28;20098;-61
2022/10/25 00:04:08;;;;;;;12.82;2.60;;;;;;;17.77;79.34;101008.00;5064860;28;20048;-62
2022/10/25 00:06:35;;;;;;;10.55;1.98;;;;;;;17.76;79.52;101021.16;5065831;28;20045;-61
2022/10/25 00:09:03;;;;;;;12.50;1.95;;;;;;;17.73;79.27;101013.47;5062964;28;20052;-62
2022/10/25 00:11:30;;;;;;;10.95;1.95;;;;;;;17.65;78.93;101016.41;5073415;28;20044;-61
2022/10/25 00:14:00;;;;;;;10.63;2.05;;;;;;;17.55;79.24;101022.50;5063649;28;20735;-61
2022/10/25 00:16:30;;;;;;;9.73;1.85;;;;;;;17.63;79.69;101024.31;5069163;28;20538;-61
2022/10/25 00:18:57;;;;;;;11.27;2.17;;;;;;;17.59;79.35;101024.19;5056164;28;20059;-61
2022/10/25 00:21:25;;;;;;;10.60;1.90;;;;;;;17.61;79.33;101016.31;5067597;28;20392;-60
2022/10/25 00:23:52;;;;;;;13.02;2.42;;;;;;;17.74;79.96;101022.66;5058653;28;20041;-60
2022/10/25 00:26:20;;;;;;;10.98;2.50;;;;;;;17.76;79.61;101021.16;5069424;28;20087;-61
2022/10/25 00:28:47;;;;;;;11.10;2.00;;;;;;;17.63;78.97;101008.41;5070693;28;20051;-61
2022/10/25 00:31:15;;;;;;;16.17;2.38;;;;;;;17.54;79.42;101015.31;5067828;28;20123;-61
2022/10/25 00:33:43;;;;;;;11.43;2.17;;;;;;;17.51;80.33;101010.41;5067310;28;20067;-61
2022/10/25 00:36:17;;;;;;;12.95;2.33;;;;;;;17.52;80.08;101012.06;5072647;28;20057;-61
2022/10/25 00:38:45;;;;;;;12.13;2.20;;;;;;;17.50;80.09;101014.38;5070990;28;20052;-62
2022/10/25 00:41:14;;;;;;;9.25;2.42;;;;;;;17.45;80.26;101007.03;5064211;28;20071;-62
2022/10/25 00:43:47;;;;;;;15.98;2.80;;;;;;;17.38;80.87;101017.97;5068903;28;20045;-62
2022/10/25 00:46:18;;;;;;;11.02;2.20;;;;;;;17.40;81.07;101020.41;5065576;28;20146;-62
2022/10/25 00:49:11;;;;;;;12.75;2.53;;;;;;;17.29;80.73;101020.09;5073504;28;20517;-60
2022/10/25 00:51:43;;;;;;;13.73;2.30;;;;;;;17.44;81.09;101029.66;5062973;28;20080;-61
2022/10/25 00:54:14;;;;;;;19.05;3.30;;;;;;;17.31;80.68;101026.09;5066860;28;20195;-61
2022/10/25 00:56:41;;;;;;;;;;;;;;;17.36;80.87;101042.59;5063970;28;20049;-61
2022/10/25 00:59:11;;;;;;;12.15;1.92;;;;;;;17.37;81.02;101030.28;5065984;28;20370;-60
2022/10/25 01:01:38;;;;;;;9.88;2.15;;;;;;;17.39;80.74;101027.13;5057786;28;20463;-61
2022/10/25 01:04:08;;;;;;;8.55;1.92;;;;;;;17.50;81.40;101037.47;5062984;28;20059;-62
2022/10/25 01:06:41;;;;;;;9.15;2.13;;;;;;;17.44;81.83;101032.47;5070178;28;20048;-61
2022/10/25 01:09:10;;;;;;;14.40;2.40;;;;;;;17.41;81.60;101034.00;5063776;28;20063;-61
2022/10/25 01:11:37;;;;;;;11.15;2.63;;;;;;;17.38;82.02;101036.66;5069973;28;20443;-61
2022/10/25 01:14:06;;;;;;;12.38;2.58;;;;;;;17.45;81.74;101039.66;5062747;28;20060;-62
2022/10/25 01:16:45;;;;;;;13.07;2.03;;;;;;;17.58;81.15;101022.59;5063658;28;20044;-62
2022/10/25 01:19:43;;;;;;;10.85;1.90;;;;;;;17.54;80.97;101035.59;5056700;28;20060;-62
2022/10/25 01:22:34;;;;;;;11.32;2.42;;;;;;;17.37;81.37;101032.25;5070048;28;20060;-61
2022/10/25 01:25:23;;;;;;;10.23;2.35;;;;;;;17.34;81.54;101032.94;5051397;28;20123;-62
2022/10/25 01:28:00;;;;;;;14.67;2.23;;;;;;;17.46;81.77;101031.00;5062945;28;20156;-62
2022/10/25 01:30:58;;;;;;;9.18;1.75;;;;;;;17.44;81.89;101032.47;5069152;28;20623;-62
2022/10/25 01:33:51;;;;;;;13.73;2.53;;;;;;;17.43;82.01;101026.09;5067718;28;20059;-62
2022/10/25 01:36:26;;;;;;;11.25;2.13;;;;;;;17.47;82.53;101020.66;5066990;28;20048;-62
2022/10/25 01:39:04;;;;;;;10.85;2.10;;;;;;;17.38;81.94;101019.94;5070249;28;20044;-61
2022/10/25 01:41:46;;;;;;;13.30;2.38;;;;;;;17.34;82.02;101024.59;5062069;28;20053;-62
2022/10/25 01:44:37;;;;;;;7.75;1.80;;;;;;;17.38;81.49;101020.75;5061753;28;20056;-61
2022/10/25 01:47:20;;;;;;;14.13;2.42;;;;;;;17.29;82.29;101016.50;5065972;28;20068;-61
2022/10/25 01:49:59;;;;;;;13.02;2.00;;;;;;;17.27;81.76;101019.63;5054806;28;20044;-61
2022/10/25 01:52:27;;;;;;;9.60;2.20;;;;;;;17.36;82.24;101013.91;5065759;28;20052;-61
2022/10/25 01:54:54;;;;;;;13.25;2.55;;;;;;;17.30;82.07;101016.13;5054259;28;20420;-62
2022/10/25 01:57:49;;;;;;;15.75;2.10;;;;;;;17.13;82.98;101024.75;5069456;28;20072;-62
2022/10/25 02:00:19;;;;;;;8.40;1.90;;;;;;;17.17;82.28;101024.88;5056680;28;20067;-61
2022/10/25 02:02:55;;;;;;;15.52;2.45;;;;;;;17.29;81.88;101025.66;5070447;28;20048;-60
2022/10/25 02:05:29;;;;;;;17.33;2.38;;;;;;;17.37;81.97;101024.69;5064886;28;20067;-61
2022/10/25 02:08:30;;;;;;;18.40;2.88;;;;;;;17.27;81.58;101016.84;5072394;28;20057;-61
2022/10/25 02:11:10;;;;;;;15.02;2.42;;;;;;;17.21;82.62;101021.00;5073246;28;20671;-62
2022/10/25 02:14:06;;;;;;;11.18;2.58;;;;;;;17.06;82.92;101018.97;5058479;28;20045;-62
2022/10/25 02:16:41;;;;;;;16.08;2.38;;;;;;;17.11;82.20;101024.28;5088361;28;20044;-61
2022/10/25 02:19:12;;;;;;;9.38;1.98;;;;;;;17.17;81.92;101022.06;5073405;28;20055;-62
2022/10/25 02:21:40;;;;;;;14.25;2.75;;;;;;;17.23;82.32;101029.00;5072059;28;20048;-61
2022/10/25 02:24:11;;;;;;;13.23;2.35;;;;;;;17.24;81.79;101030.66;5072203;28;20080;-60
2022/10/25 02:26:39;;;;;;;13.45;2.30;;;;;;;17.14;81.98;101034.72;5068895;28;20056;-60
2022/10/25 02:29:07;;;;;;;12.25;2.17;;;;;;;17.13;81.60;101032.28;5057653;28;20586;-61
2022/10/25 02:31:35;;;;;;;11.80;2.58;;;;;;;17.10;82.15;101035.78;5064735;28;20048;-61
2022/10/25 02:34:02;;;;;;;12.85;2.15;;;;;;;16.93;82.74;101042.38;5059525;28;20041;-61
2022/10/25 02:36:30;;;;;;;11.88;2.10;;;;;;;16.90;83.96;101037.50;5064357;28;20056;-62
2022/10/25 02:38:58;;;;;;;9.75;2.03;;;;;;;17.04;83.42;101043.53;5072098;28;20067;-61
2022/10/25 02:41:26;;;;;;;18.13;2.75;;;;;;;17.09;83.26;101036.91;5066826;28;20041;-61
2022/10/25 02:43:53;;;;;;;16.38;2.83;;;;;;;17.08;83.38;101040.88;5059317;28;20045;-61
2022/10/25 02:46:22;;;;;;;12.13;2.00;;;;;;;17.22;82.24;101041.31;5058936;28;20060;-61
2022/10/25 02:48:49;;;;;;;16.83;2.83;;;;;;;17.24;82.67;101048.19;5072129;28;20044;-61
2022/10/25 02:51:17;;;;;;;15.65;2.45;;;;;;;17.22;83.12;101044.09;5070793;28;20057;-62
2022/10/25 02:53:45;;;;;;;12.48;2.45;;;;;;;17.13;83.09;101044.22;5071914;28;20048;-60
2022/10/25 02:56:19;;;;;;;13.77;2.67;;;;;;;17.16;83.08;101034.34;5076327;28;20092;-61
2022/10/25 02:58:47;;;;;;;12.90;2.38;;;;;;;17.23;82.65;101038.19;5075233;28;20060;-61
2022/10/25 03:01:16;;;;;;;13.85;2.92;;;;;;;17.04;82.42;101040.75;5065113;28;20055;-61
2022/10/25 03:03:44;;;;;;;10.40;1.90;;;;;;;17.12;83.47;101036.25;5063948;28;20059;-62
2022/10/25 03:06:12;;;;;;;13.32;2.40;;;;;;;17.13;82.93;101033.09;5072572;28;20048;-62
2022/10/25 03:08:41;;;;;;;15.80;2.28;;;;;;;17.19;82.50;101039.25;5075495;28;20044;-62
2022/10/25 03:11:09;;;;;;;13.25;2.45;;;;;;;17.27;82.95;101041.06;5075732;28;20067;-60
2022/10/25 03:13:37;;;;;;;10.50;2.38;;;;;;;17.38;81.92;101036.66;5064884;28;20514;-60
2022/10/25 03:16:04;;;;;;;16.45;3.03;;;;;;;17.12;81.97;101037.03;5071992;28;20056;-62
2022/10/25 03:18:34;;;;;;;16.98;2.25;;;;;;;17.24;82.46;101044.56;5054583;28;20060;-61
2022/10/25 03:21:02;;;;;;;;;;;;;;;17.17;81.11;101036.81;5068516;28;20047;-61
2022/10/25 03:23:29;;;;;;;11.13;2.38;;;;;;;17.28;82.44;101037.13;5069254;28;19929;-61
2022/10/25 03:25:58;;;;;;;12.32;2.30;;;;;;;17.32;82.06;101043.63;5062554;28;20056;-61
2022/10/25 03:28:26;;;;;;;11.70;2.75;;;;;;;17.26;81.95;101043.03;5073595;28;20436;-61
2022/10/25 03:30:55;;;;;;;14.75;2.55;;;;;;;17.20;82.70;101046.44;5071366;28;20537;-63
2022/10/25 03:33:23;;;;;;;12.70;2.10;;;;;;;17.31;82.83;101050.38;5063075;28;20056;-62
2022/10/25 03:35:51;;;;;;;10.80;2.25;;;;;;;17.32;82.14;101058.38;5070502;28;20051;-62
2022/10/25 03:38:19;;;;;;;14.70;2.40;;;;;;;17.36;81.65;101050.13;5057799;28;20052;-61
2022/10/25 03:40:46;;;;;;;13.27;2.13;;;;;;;17.28;82.39;101063.00;5061625;28;20059;-61
2022/10/25 03:43:13;;;;;;;11.50;2.30;;;;;;;17.22;81.67;101067.19;5056639;28;20049;-60
2022/10/25 03:45:41;;;;;;;9.75;1.95;;;;;;;17.24;82.59;101066.84;5067684;28;20048;-62
2022/10/25 03:48:08;;;;;;;10.95;2.30;;;;;;;17.15;82.98;101068.94;5076624;28;20048;-61
2022/10/25 03:50:35;;;;;;;12.52;2.38;;;;;;;17.11;83.06;101065.22;5071686;28;20538;-60
2022/10/25 03:53:03;;;;;;;16.83;2.55;;;;;;;17.00;82.14;101067.66;5061776;28;20412;-61
2022/10/25 03:55:32;;;;;;;15.95;2.80;;;;;;;17.11;83.32;101066.03;5074616;28;20053;-61
2022/10/25 03:57:59;;;;;;;9.40;2.15;;;;;;;17.18;82.79;101068.22;5060586;28;20053;-62
2022/10/25 04:00:27;;;;;;;13.77;2.38;;;;;;;17.29;82.34;101069.38;5061904;28;20037;-62
2022/10/25 04:02:56;;;;;;;10.70;2.20;;;;;;;17.31;82.10;101069.84;5062839;28;20045;-61
2022/10/25 04:05:29;;;;;;;9.73;2.10;;;;;;;17.35;81.28;101065.19;5069267;28;20155;-62
2022/10/25 04:07:57;;;;;;;13.52;2.42;;;;;;;17.48;82.33;101059.31;5074305;28;20071;-62
2022/10/25 04:10:25;;;;;;;9.63;1.70;;;;;;;17.30;82.18;101063.47;5061245;28;20063;-61
2022/10/25 04:12:52;;;;;;;13.88;2.47;;;;;;;17.29;81.96;101066.59;5063882;28;20048;-62
2022/10/25 04:15:22;;;;;;;17.55;2.67;;;;;;;17.39;82.10;101063.34;5057166;28;20052;-62
2022/10/25 04:17:50;;;;;;;13.40;2.13;;;;;;;17.25;81.38;101068.47;5075397;28;20079;-61
2022/10/25 04:20:18;;;;;;;15.07;2.35;;;;;;;17.07;81.94;101076.22;5074300;28;20048;-63
2022/10/25 04:22:52;;;;;;;11.82;2.25;;;;;;;17.14;82.39;101068.13;5061356;28;20472;-63
2022/10/25 04:25:20;;;;;;;14.15;2.35;;;;;;;17.20;83.29;101063.94;5060849;28;20036;-63
2022/10/25 04:27:47;;;;;;;16.70;2.75;;;;;;;17.25;82.46;101074.84;5071106;28;20060;-63
2022/10/25 04:30:15;;;;;;;15.13;2.33;;;;;;;17.22;83.09;101074.72;5069978;28;20124;-63
2022/10/25 04:32:42;;;;;;;11.30;2.13;;;;;;;17.29;82.27;101078.56;5062026;28;20064;-61
2022/10/25 04:35:11;;;;;;;14.73;2.70;;;;;;;17.23;82.12;101070.78;5071635;28;20661;-62
2022/10/25 04:37:38;;;;;;;18.80;2.55;;;;;;;17.32;81.89;101072.28;5065088;28;20048;-63
2022/10/25 04:40:06;;;;;;;16.05;3.03;;;;;;;17.30;82.67;101066.25;5062680;28;20055;-63
2022/10/25 04:42:34;;;;;;;14.55;2.65;;;;;;;17.35;82.38;101074.38;5073323;28;20067;-62
2022/10/25 04:45:01;;;;;;;14.32;2.80;;;;;;;17.29;82.59;101064.63;5055377;28;20488;-64
2022/10/25 04:47:31;;;;;;;15.27;3.00;;;;;;;17.41;82.25;101072.97;5053438;28;20045;-63
2022/10/25 04:49:58;;;;;;;15.40;3.05;;;;;;;17.39;82.60;101075.28;5078287;28;20056;-62
2022/10/25 04:52:28;;;;;;;14.23;2.70;;;;;;;17.37;82.57;101082.38;5064384;28;20053;-61
2022/10/25 04:54:56;;;;;;;13.48;2.85;;;;;;;17.45;82.78;101085.00;5065769;28;20473;-61
2022/10/25 04:57:24;;;;;;;14.77;2.90;;;;;;;17.18;82.97;101076.59;5072423;28;20044;-63
2022/10/25 04:59:51;;;;;;;16.48;2.83;;;;;;;17.04;83.23;101084.47;5061508;28;20052;-63
2022/10/25 05:02:19;;;;;;;17.00;3.25;;;;;;;17.11;84.48;101079.97;5067732;28;20056;-62
2022/10/25 05:04:46;;;;;;;17.00;3.13;;;;;;;17.18;83.58;101076.59;5071722;28;20044;-62
2022/10/25 05:07:17;;;;;;;13.68;2.83;;;;;;;17.04;83.98;101076.94;5088276;28;20053;-62
2022/10/25 05:09:45;;;;;;;18.92;3.08;;;;;;;17.07;84.67;101078.22;5073003;28;20041;-63
2022/10/25 05:12:14;;;;;;;20.92;3.53;;;;;;;16.88;83.89;101081.56;5066436;28;20060;-63
2022/10/25 05:14:41;;;;;;;16.55;2.78;;;;;;;16.79;85.72;101081.66;5074504;28;20059;-63
2022/10/25 05:17:08;;;;;;;15.18;3.00;;;;;;;16.85;86.22;101083.09;5067974;28;20051;-63
2022/10/25 05:19:36;;;;;;;18.80;3.92;;;;;;;16.85;85.47;101088.66;5074339;28;20057;-63
2022/10/25 05:22:03;;;;;;;15.43;4.00;;;;;;;16.59;85.56;101084.53;5070711;28;20049;-62
2022/10/25 05:24:30;;;;;;;15.73;2.75;;;;;;;16.56;87.23;101088.03;5055071;28;20060;-62
2022/10/25 05:26:57;;;;;;;20.52;4.35;;;;;;;16.54;87.76;101096.72;5068147;28;20048;-60
2022/10/25 05:29:25;;;;;;;15.98;3.55;;;;;;;16.66;87.38;101091.19;5072739;28;20048;-61
2022/10/25 05:31:52;;;;;;;17.42;3.25;;;;;;;16.78;86.97;101088.41;5070040;28;20060;-63
2022/10/25 05:34:19;;;;;;;13.95;3.05;;;;;;;16.78;86.46;101091.19;5068286;28;20095;-63
2022/10/25 05:36:49;;;;;;;19.27;3.83;;;;;;;16.89;86.55;101089.56;5064260;28;20079;-62
2022/10/25 05:39:16;;;;;;;14.73;3.00;;;;;;;16.89;85.51;101088.78;5074345;28;20056;-63
2022/10/25 05:41:43;;;;;;;17.48;4.05;;;;;;;16.59;87.18;101095.66;5071677;28;20053;-62
2022/10/25 05:44:10;;;;;;;13.65;2.90;;;;;;;16.94;87.40;101093.28;5053700;28;20488;-62
2022/10/25 05:46:38;;;;;;;15.77;3.97;;;;;;;16.72;86.75;101095.34;5063499;28;20048;-61
2022/10/25 05:49:05;;;;;;;17.50;3.67;;;;;;;16.84;87.56;101103.69;5062320;28;20044;-63
2022/10/25 05:51:32;;;;;;;21.30;4.03;;;;;;;16.97;87.11;101096.19;5071892;28;20056;-62
2022/10/25 05:54:12;;;;;;;19.55;3.45;;;;;;;16.83;86.85;101102.09;5074457;28;20499;-61
2022/10/25 05:56:40;;;;;;;13.70;3.10;;;;;;;16.88;86.85;101094.69;5070923;28;20052;-61
2022/10/25 05:59:09;;;;;;;13.05;3.72;;;;;;;16.89;86.65;101091.56;5073755;28;20040;-61
2022/10/25 06:01:39;;;;;;;22.38;4.15;;;;;;;16.96;86.54;101097.34;5072304;28;20059;-61
2022/10/25 06:04:07;;;;;;;17.92;3.45;;;;;;;16.97;86.69;101106.50;5074067;28;20518;-62
2022/10/25 06:06:35;;;;;;;20.17;3.55;;;;;;;17.00;87.42;101098.25;5072340;28;20052;-61
2022/10/25 06:09:03;;;;;;;22.88;3.83;;;;;;;16.98;87.23;101097.00;5073610;28;20049;-62
2022/10/25 06:11:31;;;;;;;20.80;3.67;;;;;;;16.99;86.45;101098.63;5064697;28;20053;-61
2022/10/25 06:13:58;;;;;;;16.55;3.80;;;;;;;17.00;87.33;101097.47;5069443;28;20053;-61
2022/10/25 06:16:25;;;;;;;17.48;3.00;;;;;;;16.94;86.74;101094.09;5071237;28;20045;-62
2022/10/25 06:18:53;;;;;;;18.65;3.53;;;;;;;16.90;87.32;101095.94;5051229;28;20064;-61
2022/10/25 06:21:22;;;;;;;23.20;3.63;;;;;;;16.88;87.35;101097.47;5062826;28;20053;-62
2022/10/25 06:23:50;;;;;;;17.73;3.50;;;;;;;17.08;87.08;101100.16;5052331;28;20409;-62
2022/10/25 06:26:21;;;;;;;10.30;3.05;;;;;;;17.32;87.05;101099.31;5067889;28;20028;-62
2022/10/25 06:28:51;;;;;;;13.32;3.22;;;;;;;17.29;86.00;101106.41;5078749;28;20051;-61
2022/10/25 06:31:18;;;;;;;;;;;;;;;17.26;85.24;101109.06;5081400;28;20044;-62
2022/10/25 06:33:46;;;;;;;17.85;3.58;;;;;;;17.38;85.72;101104.28;5068348;28;19921;-62
2022/10/25 06:36:18;;;;;;;16.98;3.20;;;;;;;17.38;85.59;101120.22;5077403;28;20585;-63
2022/10/25 06:38:46;;;;;;;14.95;3.13;;;;;;;17.43;86.06;101119.97;5073083;28;20044;-64
2022/10/25 06:41:16;;;;;;;17.67;3.42;;;;;;;17.29;86.25;101122.28;5067056;28;20048;-63
2022/10/25 06:43:44;;;;;;;18.58;3.45;;;;;;;17.44;86.74;101111.25;5073100;28;20068;-63
2022/10/25 06:46:17;;;;;;;18.80;3.97;;;;;;;17.34;87.55;101122.06;5068500;28;20151;-62
2022/10/25 06:48:44;;;;;;;15.48;3.33;;;;;;;17.39;88.60;101117.06;5063145;28;20060;-63
2022/10/25 06:51:12;;;;;;;20.80;3.63;;;;;;;17.37;87.70;101122.16;5068015;28;20060;-64
2022/10/25 06:53:39;;;;;;;19.88;3.88;;;;;;;17.41;86.78;101127.84;5073316;28;20052;-64
2022/10/25 06:56:08;;;;;;;25.23;3.72;;;;;;;17.39;87.35;101121.81;5070382;28;20048;-63
2022/10/25 06:58:40;;;;;;;26.08;3.63;;;;;;;17.53;86.52;101130.66;5074444;28;20052;-63
2022/10/25 07:01:12;;;;;;;13.60;3.20;;;;;;;17.55;85.89;101126.38;5065117;28;20052;-65
2022/10/25 07:03:40;;;;;;;14.32;3.17;;;;;;;17.30;84.63;101124.72;5070473;28;20059;-64
2022/10/25 07:06:11;;;;;;;14.93;5.50;;;;;;;17.44;85.53;101136.31;5068796;28;20052;-63
2022/10/25 07:08:40;;;;;;;14.48;3.85;;;;;;;17.50;84.41;101132.19;5062030;28;20048;-63
2022/10/25 07:11:12;;;;;;;18.67;3.75;;;;;;;17.52;84.58;101131.84;5069434;28;20067;-64
2022/10/25 07:13:39;;;;;;;12.82;3.53;;;;;;;17.62;83.43;101129.38;5074151;28;20068;-64
2022/10/25 07:16:11;;;;;;;17.65;4.07;;;;;;;17.42;82.05;101130.28;5036860;28;20045;-64
2022/10/25 07:18:39;;;;;;;15.93;6.47;;;;;;;17.59;83.27;101134.84;5070201;28;20040;-62
2022/10/25 07:21:17;;;;;;;20.55;3.63;;;;;;;17.63;82.03;101133.78;5073551;28;20484;-63
2022/10/25 07:23:46;;;;;;;19.90;4.13;;;;;;;17.53;81.41;101144.59;5068843;28;20056;-63
2022/10/25 07:26:28;;;;;;;15.85;3.08;;;;;;;17.64;80.80;101143.75;5066583;28;20045;-64
2022/10/25 07:28:58;;;;;;;14.48;3.33;;;;;;;17.67;80.54;101145.84;5068506;28;20058;-64
2022/10/25 07:31:28;;;;;;;13.07;3.22;;;;;;;17.59;80.58;101138.41;5066233;28;20040;-63
2022/10/25 07:33:58;;;;;;;18.63;5.55;;;;;;;17.53;80.60;101137.06;5067946;28;20041;-64
2022/10/25 07:36:25;;;;;;;18.98;7.72;;;;;;;17.69;80.52;101135.19;5066102;28;20091;-64
2022/10/25 07:38:52;;;;;;;13.55;4.22;;;;;;;17.73;80.21;101144.44;5071748;28;20041;-64
2022/10/25 07:41:20;;;;;;;19.90;8.60;;;;;;;17.99;78.94;101149.63;5075222;28;20582;-64
2022/10/25 07:43:47;;;;;;;16.40;6.88;;;;;;;18.04;77.46;101151.34;5069140;28;20061;-64
2022/10/25 07:46:14;;;;;;;16.45;4.40;;;;;;;18.10;77.78;101147.16;5067472;28;20459;-63
2022/10/25 07:48:42;;;;;;;15.27;3.83;;;;;;;18.05;77.57;101147.38;5052940;28;20040;-64
2022/10/25 07:51:10;;;;;;;22.20;3.78;;;;;;;18.08;77.66;101152.28;5074989;28;20119;-64
2022/10/25 07:53:38;;;;;;;12.77;2.88;;;;;;;18.02;77.30;101150.88;5063879;28;20045;-64
2022/10/25 07:56:06;;;;;;;16.45;3.50;;;;;;;17.96;77.84;101151.13;5066123;28;20052;-64
2022/10/25 07:58:33;;;;;;;12.82;3.33;;;;;;;18.07;77.63;101159.00;5066602;28;20048;-65
2022/10/25 08:01:04;;;;;;;13.73;2.95;;;;;;;17.99;77.19;101158.78;5066395;28;20138;-64
2022/10/25 08:03:32;;;;;;;13.32;3.72;;;;;;;18.02;77.78;101154.47;5071801;28;20055;-64
2022/10/25 08:06:00;;;;;;;15.45;3.33;;;;;;;18.03;77.52;101158.09;5074505;28;20514;-64
2022/10/25 08:08:28;;;;;;;12.23;2.97;;;;;;;18.16;76.83;101154.91;5075342;28;20048;-64
2022/10/25 08:10:55;;;;;;;19.98;4.47;;;;;;;18.29;75.94;101141.75;5070368;28;20049;-64
2022/10/25 08:13:23;;;;;;;19.95;7.57;;;;;;;18.47;75.36;101146.69;5070841;28;20102;-64
2022/10/25 08:15:55;;;;;;;14.68;6.13;;;;;;;18.59;74.94;101148.59;5070411;28;20049;-65
2022/10/25 08:18:23;;;;;;;17.38;3.58;;;;;;;18.46;75.07;101142.25;5069041;28;20052;-64
2022/10/25 08:20:50;;;;;;;17.38;3.03;;;;;;;18.47;74.40;101132.72;5062897;28;20045;-63
2022/10/25 08:23:33;;;;;;;17.23;3.60;;;;;;;18.60;74.18;101120.31;5063517;28;20365;-64
2022/10/25 08:26:00;;;;;;;15.00;3.22;;;;;;;18.52;73.99;101129.69;5071541;28;20120;-64
2022/10/25 08:28:29;;;;;;;15.27;3.42;;;;;;;18.44;73.90;101127.06;5071804;28;20044;-64
2022/10/25 08:30:59;;;;;;;12.73;2.83;;;;;;;18.55;73.99;101142.13;5072267;28;20063;-63
2022/10/25 08:33:27;;;;;;;10.98;2.40;;;;;;;18.45;74.21;101134.25;5078837;28;20048;-63
2022/10/25 08:35:55;;;;;;;18.10;4.63;;;;;;;18.64;73.28;101142.75;5048878;28;20052;-65
2022/10/25 08:38:22;;;;;;;20.35;5.47;;;;;;;18.68;72.58;101138.06;5052161;28;20057;-63
2022/10/25 08:41:01;;;;;;;24.33;6.03;;;;;;;18.59;72.85;101131.84;5060482;28;20408;-64
2022/10/25 08:44:04;;;;;;;12.70;2.97;;;;;;;18.30;72.36;101138.59;5066610;28;20041;-63
2022/10/25 08:47:09;;;;;;;15.52;6.05;;;;;;;18.24;73.51;101141.97;5063850;28;20311;-64
2022/10/25 08:49:57;;;;;;;18.13;7.13;;;;;;;18.10;73.64;101138.78;5060815;28;20063;-65
2022/10/25 08:53:02;;;;;;;14.57;3.17;;;;;;;18.11;72.65;101134.81;5068333;28;20045;-63
2022/10/25 08:55:38;;;;;;;18.70;3.00;;;;;;;18.25;72.35;101122.13;5062112;28;20036;-64
2022/10/25 08:58:45;;;;;;;15.00;3.35;;;;;;;18.24;72.38;101134.41;5063235;28;20522;-64
2022/10/25 09:01:15;;;;;;;18.48;4.13;;;;;;;18.37;71.64;101135.19;5064944;28;20071;-64
2022/10/25 09:03:43;;;;;;;16.27;2.03;;;;;;;18.45;71.05;101131.44;5065339;28;20055;-63
2022/10/25 09:06:22;;;;;;;10.15;3.00;;;;;;;18.36;71.29;101130.78;5064863;28;20036;-64
2022/10/25 09:09:27;;;;;;;15.75;3.70;;;;;;;18.62;70.47;101133.94;5053418;28;20517;-65
2022/10/25 09:11:54;;;;;;;13.77;4.97;;;;;;;18.66;69.76;101132.84;5069161;28;20037;-64
2022/10/25 09:14:31;;;;;;;10.02;2.50;;;;;;;18.67;69.56;101131.69;5072331;28;20408;-65
2022/10/25 09:17:19;;;;;;;10.48;2.63;;;;;;;18.74;68.92;101131.06;5064377;28;20040;-63
2022/10/25 09:20:12;;;;;;;10.88;4.10;;;;;;;18.82;68.31;101127.28;5067467;28;20046;-64
2022/10/25 09:22:46;;;;;;;14.70;4.38;;;;;;;18.84;68.76;101113.78;5049393;28;20052;-63
2022/10/25 09:25:34;;;;;;;14.07;2.95;;;;;;;18.77;68.52;101119.19;5065691;28;20063;-63
2022/10/25 09:28:08;;;;;;;10.13;2.10;;;;;;;18.81;67.38;101120.88;5066516;28;20047;-65
2022/10/25 09:30:41;;;;;;;10.70;2.33;;;;;;;18.74;67.92;101112.31;5044250;28;20063;-67
2022/10/25 09:33:13;;;;;;;10.52;2.75;;;;;;;18.88;67.87;101121.06;5081355;28;20053;-63
2022/10/25 09:35:47;;;;;;;10.55;3.10;;;;;;;18.83;68.12;101129.72;5041832;28;20519;-64
2022/10/25 09:38:19;;;;;;;10.55;2.63;;;;;;;18.89;68.10;101122.72;5052214;28;20066;-63
2022/10/25 09:40:50;;;;;;;9.65;1.58;;;;;;;18.92;67.43;101115.59;5063934;28;20555;-63
2022/10/25 09:43:21;;;;;;;8.65;2.13;;;;;;;18.92;67.26;101110.81;5068405;28;20087;-64
2022/10/25 09:45:52;;;;;;;11.27;2.10;;;;;;;18.74;68.08;101109.53;5056781;28;20052;-65
2022/10/25 09:48:45;;;;;;;11.73;2.05;;;;;;;19.03;67.83;101120.28;5042885;28;20534;-63
2022/10/25 09:51:17;;;;;;;8.18;1.98;;;;;;;19.03;66.94;101111.91;5076963;28;20059;-63
2022/10/25 09:53:45;;;;;;;11.88;3.10;;;;;;;18.87;67.31;101113.06;5058448;28;20064;-64
2022/10/25 09:56:12;;;;;;;15.75;5.95;;;;;;;18.96;67.33;101120.09;5076778;28;20057;-63
2022/10/25 09:58:43;;;;;;;13.90;2.95;;;;;;;18.99;67.32;101112.97;5062999;28;20068;-65
2022/10/25 10:01:15;;;;;;;12.05;3.13;;;;;;;18.96;67.10;101120.09;5059979;28;20049;-63
2022/10/25 10:03:43;;;;;;;9.00;2.13;;;;;;;18.96;66.70;101114.53;5059464;28;20036;-63
2022/10/25 10:06:20;;;;;;;11.23;1.98;;;;;;;18.98;66.84;101103.81;5080361;28;20049;-62
2022/10/25 10:08:52;;;;;;;9.60;2.08;;;;;;;19.05;66.76;101109.56;5063565;28;20051;-64
2022/10/25 10:11:19;;;;;;;7.60;1.92;;;;;;;19.19;66.30;101097.13;5064163;28;20052;-65
2022/10/25 10:13:51;;;;;;;7.78;1.95;;;;;;;19.15;65.60;101099.81;5063163;28;20040;-62
2022/10/25 10:16:30;;;;;;;8.18;1.70;;;;;;;18.95;66.58;101098.94;5060584;28;20044;-64
2022/10/25 10:19:18;;;;;;;14.73;2.10;;;;;;;19.08;65.98;101097.69;5069857;28;20511;-62
2022/10/25 10:21:51;;;;;;;10.00;2.53;;;;;;;19.10;66.26;101094.53;5065485;28;20048;-63
2022/10/25 10:24:21;;;;;;;11.90;2.00;;;;;;;19.03;66.27;101092.38;5069424;28;20049;-61
2022/10/25 10:26:54;;;;;;;7.40;1.90;;;;;;;19.09;66.88;101099.28;5062103;28;20040;-62
2022/10/25 10:29:31;;;;;;;12.80;4.40;;;;;;;19.23;66.50;101096.03;5063271;28;20115;-62
2022/10/25 10:32:21;;;;;;;19.10;7.22;;;;;;;19.25;66.72;101101.28;5062214;28;20052;-62
2022/10/25 10:34:58;;;;;;;16.10;5.80;;;;;;;19.18;67.01;101107.47;5062904;28;20075;-64
2022/10/25 10:37:30;;;;;;;15.90;6.00;;;;;;;19.19;67.32;101097.94;5066565;28;20036;-64
2022/10/25 10:39:59;;;;;;;15.75;5.68;;;;;;;19.36;67.15;101103.16;5066516;28;20056;-62
2022/10/25 10:42:33;;;;;;;15.77;5.13;;;;;;;19.43;66.78;101091.34;5062501;28;20060;-65
2022/10/25 10:45:07;;;;;;;11.13;3.95;;;;;;;19.35;68.34;101087.59;5063795;28;20060;-63
2022/10/25 10:47:42;;;;;;;13.38;2.85;;;;;;;19.41;70.86;101094.50;5067958;28;20428;-62
2022/10/25 10:50:22;;;;;;;12.85;3.53;;;;;;;19.39;72.51;101090.44;5066224;28;20049;-65
2022/10/25 10:52:52;;;;;;;16.00;4.57;;;;;;;19.08;68.95;101091.28;5068547;28;20067;-62
2022/10/25 10:55:35;;;;;;;12.85;3.80;;;;;;;18.62;71.17;101084.50;5069869;28;20061;-63
2022/10/25 10:58:13;;;;;;;13.48;4.10;;;;;;;18.89;71.08;101078.06;5070740;28;20059;-64
2022/10/25 11:00:49;;;;;;;18.23;4.43;;;;;;;18.67;71.00;101080.66;5066500;28;20055;-63
2022/10/25 11:03:38;;;;;;;17.88;3.10;;;;;;;18.97;72.09;101065.88;5066238;28;20056;-62
2022/10/25 11:06:29;;;;;;;11.07;3.08;;;;;;;19.09;70.60;101062.97;5069199;28;20491;-61
2022/10/25 11:09:11;;;;;;;12.05;3.28;;;;;;;19.27;70.64;101066.19;5063378;28;20049;-63
2022/10/25 11:11:39;;;;;;;11.20;3.35;;;;;;;19.17;70.64;101058.38;5063318;28;20049;-64
2022/10/25 11:14:12;;;;;;;13.40;3.50;;;;;;;18.86;70.61;101064.00;5061420;28;20048;-62
2022/10/25 11:17:12;;;;;;;8.38;3.13;;;;;;;18.48;71.28;101063.81;5058286;28;20157;-62
2022/10/25 11:19:56;;;;;;;12.30;3.88;;;;;;;18.08;72.50;101065.84;5065731;28;20064;-64
2022/10/25 11:22:45;;;;;;;12.98;3.38;;;;;;;18.14;72.99;101053.25;5073153;28;20075;-63
2022/10/25 11:25:30;;;;;;;15.13;3.85;;;;;;;18.49;72.70;101054.25;5068428;28;20171;-64
2022/10/25 11:28:00;;;;;;;11.90;3.45;;;;;;;18.77;71.49;101050.22;5070291;28;20074;-64
2022/10/25 11:30:55;;;;;;;11.00;3.00;;;;;;;18.77;69.99;101050.22;5068176;28;20052;-62
2022/10/25 11:33:31;;;;;;;14.48;3.60;;;;;;;18.89;70.90;101044.56;5072910;28;20049;-63
2022/10/25 11:36:12;;;;;;;13.93;3.80;;;;;;;18.63;71.16;101049.06;5063711;28;20061;-64
2022/10/25 11:39:02;;;;;;;11.60;3.00;;;;;;;18.92;70.20;101054.16;5071236;28;20036;-65
2022/10/25 11:41:48;;;;;;;17.17;3.33;;;;;;;19.18;69.43;101048.81;5071770;28;20082;-63
2022/10/25 11:44:42;;;;;;;10.35;3.42;;;;;;;19.31;68.58;101044.78;5070663;28;20040;-65